Terminal Aerodrome Forecast
Issued by NWS

Home | Current Version | Previous Version | Text Only | Print | Product List | Glossary On
Versions: 1 2 3 4 5 6 7 8 9 10 11 12
000
FTUS45 KABQ 021139
TAFFMN
TAF
KFMN 021139Z 0212/0312 09005KT P6SM BKN150
     FM021930 26011KT P6SM VCSH SCT070 BKN100
     FM022200 24011G19KT 6SM -SHRA VCTS SCT040 BKN070CB
     FM030100 16009KT P6SM VCSH BKN090
     FM030700 06006KT P6SM VCSH BKN090=

USA.gov is the U.S. government's official web portal to all federal, state and local government web resources and services.